Time;durP1;ratioP1;P1;durP2;ratioP2;P2;SDS_P1;SDS_P2;PMS_P1;PMS_P2;Temp;Humidity;BMP_temperature;BMP_pressure;BME280_temperature;BME280_humidity;BME280_pressure;Samples;Min_cycle;Max_cycle;Signal;HPM_P1;HPM_P2
2022/06/07 00:01:21;;;;;;;4.63;3.05;;;;;;;15.18;89.98;94623.81;5050800;28;20342;-79
2022/06/07 00:03:48;;;;;;;9.60;3.03;;;;;;;15.25;89.68;94623.97;5050611;28;20557;-81
2022/06/07 00:06:16;;;;;;;5.13;3.70;;;;;;;15.31;89.93;94617.09;5050614;28;20262;-80
2022/06/07 00:08:43;;;;;;;9.85;4.80;;;;;;;15.36;90.44;94622.28;5050375;28;20666;-79
2022/06/07 00:11:10;;;;;;;7.10;3.95;;;;;;;15.41;90.24;94626.66;5050631;28;20200;-80
2022/06/07 00:13:38;;;;;;;5.20;3.65;;;;;;;15.45;89.34;94625.56;5050360;28;20243;-80
2022/06/07 00:16:05;;;;;;;5.82;3.28;;;;;;;15.37;88.76;94621.13;5050771;28;20239;-80
2022/06/07 00:18:32;;;;;;;5.40;3.30;;;;;;;15.45;88.29;94624.78;5050768;28;20268;-80
2022/06/07 00:21:00;;;;;;;6.82;3.40;;;;;;;15.46;88.07;94629.09;5050467;28;20285;-81
2022/06/07 00:23:31;;;;;;;6.82;4.15;;;;;;;15.53;87.96;94630.06;5050472;28;20249;-81
2022/06/07 00:25:59;;;;;;;7.30;3.85;;;;;;;15.50;88.05;94636.22;5050486;28;20193;-80
2022/06/07 00:28:27;;;;;;;8.88;3.78;;;;;;;15.41;88.93;94634.84;5050280;28;20315;-81
2022/06/07 00:30:54;;;;;;;11.07;4.65;;;;;;;15.45;89.02;94635.69;5052828;28;20305;-80
2022/06/07 00:33:23;;;;;;;8.82;5.07;;;;;;;15.49;89.51;94629.19;5052189;28;20329;-80
2022/06/07 00:35:50;;;;;;;8.02;4.53;;;;;;;15.64;89.27;94635.75;5049857;28;20251;-80
2022/06/07 00:38:17;;;;;;;9.95;4.55;;;;;;;15.67;90.96;94628.78;5039969;28;20211;-79
2022/06/07 00:40:45;;;;;;;9.15;4.97;;;;;;;15.49;93.63;94623.72;5041450;28;20231;-79
2022/06/07 00:43:12;;;;;;;8.73;4.30;;;;;;;15.38;94.47;94628.16;5053896;28;20207;-80
2022/06/07 00:45:39;;;;;;;15.85;5.03;;;;;;;15.35;94.67;94623.41;5054418;28;20360;-80
2022/06/07 00:48:08;;;;;;;10.95;4.78;;;;;;;15.43;94.21;94635.28;5053843;28;20728;-81
2022/06/07 00:50:42;;;;;;;7.65;4.53;;;;;;;15.42;94.03;94629.03;5054355;28;20326;-80
2022/06/07 00:53:21;;;;;;;7.53;4.35;;;;;;;15.49;94.12;94634.63;5053172;28;20223;-80
2022/06/07 00:55:49;;;;;;;7.75;3.95;;;;;;;15.61;93.38;94636.47;5053468;28;20277;-80
2022/06/07 00:58:16;;;;;;;10.85;4.10;;;;;;;15.65;92.30;94631.88;5053058;28;20239;-80
2022/06/07 01:00:43;;;;;;;9.07;4.80;;;;;;;15.51;92.22;94632.34;5053967;28;20667;-80
2022/06/07 01:03:10;;;;;;;7.13;4.03;;;;;;;15.52;92.08;94628.47;5053839;28;20203;-80
2022/06/07 01:05:36;;;;;;;6.88;3.92;;;;;;;15.45;91.90;94628.31;5053904;28;20204;-80
2022/06/07 01:10:53;;;;;;;5.15;3.70;;;;;;;15.46;91.65;94629.88;5052835;28;20202;-80
2022/06/07 01:13:23;;;;;;;12.25;3.90;;;;;;;15.47;91.56;94636.94;5052908;28;20278;-80
2022/06/07 01:15:51;;;;;;;8.93;4.35;;;;;;;15.49;91.60;94631.13;5050644;28;20280;-80
2022/06/07 01:18:18;;;;;;;6.25;3.90;;;;;;;15.54;91.66;94628.91;5053365;28;20273;-80
2022/06/07 01:20:45;;;;;;;6.90;4.13;;;;;;;15.62;91.84;94633.38;5053317;28;20297;-80
2022/06/07 01:23:13;;;;;;;7.30;4.35;;;;;;;15.73;91.57;94633.59;5053006;28;20199;-80
2022/06/07 01:25:40;;;;;;;11.02;3.70;;;;;;;15.71;91.51;94635.13;5052861;28;20742;-80
2022/06/07 01:28:07;;;;;;;9.25;3.65;;;;;;;15.77;91.29;94639.13;5053131;28;20231;-80
2022/06/07 01:30:34;;;;;;;6.57;4.28;;;;;;;15.75;91.63;94630.50;5053073;28;20706;-80
2022/06/07 01:33:00;;;;;;;9.57;4.85;;;;;;;15.61;91.95;94629.06;5053178;28;20253;-80
2022/06/07 01:35:27;;;;;;;7.97;3.67;;;;;;;15.49;92.97;94640.09;5053170;28;20289;-80
2022/06/07 01:37:54;;;;;;;5.45;3.72;;;;;;;15.39;93.56;94637.94;5053389;28;20204;-80
2022/06/07 01:43:07;;;;;;;8.75;4.45;;;;;;;15.47;93.25;94636.94;5052799;28;20252;-80
2022/06/07 01:45:34;;;;;;;6.00;3.78;;;;;;;15.49;93.56;94642.81;5039387;28;20625;-80
2022/06/07 01:48:00;;;;;;;6.57;3.97;;;;;;;15.62;93.04;94638.84;5051562;28;20706;-80
2022/06/07 01:50:27;;;;;;;8.05;4.43;;;;;;;15.67;93.30;94628.78;5039638;28;20262;-80
2022/06/07 01:52:54;;;;;;;5.78;4.15;;;;;;;15.76;92.38;94632.09;5053101;28;20203;-80
2022/06/07 01:55:23;;;;;;;7.70;3.90;;;;;;;15.83;92.13;94626.78;5052651;28;20231;-80
2022/06/07 01:57:49;;;;;;;7.30;4.20;;;;;;;15.83;92.01;94622.09;5052407;28;20265;-80
2022/06/07 02:00:17;;;;;;;7.07;4.05;;;;;;;15.84;92.04;94617.44;5052706;28;20277;-80
2022/06/07 02:02:44;;;;;;;6.28;3.97;;;;;;;15.96;91.13;94620.00;5052704;28;20253;-80
2022/06/07 02:05:11;;;;;;;6.53;4.95;;;;;;;15.90;91.39;94621.44;5052464;28;20688;-80
2022/06/07 02:07:38;;;;;;;7.40;4.07;;;;;;;16.02;90.71;94618.53;5052615;28;20203;-80
2022/06/07 02:10:05;;;;;;;6.28;4.18;;;;;;;15.96;90.80;94609.06;5052361;28;20261;-80
2022/06/07 02:12:34;;;;;;;6.93;3.90;;;;;;;15.95;91.25;94615.69;5052032;28;20269;-80
2022/06/07 02:15:00;;;;;;;7.35;3.40;;;;;;;15.94;91.31;94619.56;5052043;28;20597;-80
2022/06/07 02:17:27;;;;;;;8.52;4.30;;;;;;;15.99;91.02;94619.25;5052312;28;20239;-80
2022/06/07 02:19:54;;;;;;;7.95;4.70;;;;;;;15.95;91.20;94612.97;5052227;28;20276;-80
2022/06/07 02:22:21;;;;;;;9.02;4.30;;;;;;;15.87;91.58;94616.69;5052046;28;20609;-80
2022/06/07 02:24:48;;;;;;;10.48;4.38;;;;;;;15.84;92.06;94611.97;5051965;28;20227;-80
2022/06/07 02:27:19;;;;;;;10.02;4.63;;;;;;;15.86;92.13;94623.28;5052197;28;20249;-80
2022/06/07 02:29:50;;;;;;;5.05;3.55;;;;;;;15.90;91.84;94613.25;5051621;28;20789;-80
2022/06/07 02:32:21;;;;;;;7.18;3.75;;;;;;;15.83;90.98;94627.56;5052251;28;20274;-79
2022/06/07 02:34:52;;;;;;;8.43;4.03;;;;;;;15.70;91.55;94628.06;5051731;28;20710;-80
2022/06/07 02:37:19;;;;;;;5.90;4.22;;;;;;;15.76;91.45;94627.41;5046260;28;20239;-80
2022/06/07 02:39:46;;;;;;;6.90;3.80;;;;;;;15.87;91.22;94622.94;5031995;28;20614;-79
2022/06/07 02:42:17;;;;;;;7.63;4.00;;;;;;;15.99;90.88;94625.50;5050729;28;20224;-79
2022/06/07 02:44:44;;;;;;;5.55;3.45;;;;;;;16.05;90.41;94628.75;5051945;28;20724;-80
2022/06/07 02:47:12;;;;;;;6.10;3.97;;;;;;;16.04;90.08;94629.91;5051683;28;20224;-79
2022/06/07 02:49:39;;;;;;;4.90;3.83;;;;;;;16.03;89.85;94625.59;5051648;28;20274;-79
2022/06/07 02:52:06;;;;;;;7.25;4.80;;;;;;;16.03;89.73;94616.59;5041425;28;20207;-79
2022/06/07 02:54:33;;;;;;;7.05;3.80;;;;;;;16.00;90.13;94626.31;5040610;28;20718;-79
2022/06/07 02:57:00;;;;;;;6.55;4.28;;;;;;;15.79;90.82;94632.16;5051217;28;20713;-80
2022/06/07 02:59:27;;;;;;;7.18;3.92;;;;;;;15.78;91.41;94640.72;5051352;28;20207;-79
2022/06/07 03:01:54;;;;;;;8.55;4.78;;;;;;;15.91;91.06;94645.66;5051196;28;20291;-79
2022/06/07 03:04:22;;;;;;;5.88;4.15;;;;;;;15.84;91.91;94640.06;5050512;28;20662;-79
2022/06/07 03:06:49;;;;;;;7.07;4.32;;;;;;;15.78;92.13;94646.16;5051059;28;20204;-79
2022/06/07 03:09:16;;;;;;;7.88;4.85;;;;;;;15.81;92.75;94650.94;5050468;28;20219;-79
2022/06/07 03:11:43;;;;;;;7.40;4.90;;;;;;;15.88;92.35;94651.84;5051024;28;20208;-79
2022/06/07 03:14:10;;;;;;;8.68;5.25;;;;;;;15.96;92.25;94663.72;5051097;28;20235;-79
2022/06/07 03:16:37;;;;;;;9.02;4.82;;;;;;;16.00;91.76;94659.88;5051470;28;20242;-78
2022/06/07 03:19:04;;;;;;;7.82;4.57;;;;;;;16.06;91.65;94665.84;5050640;28;20667;-79
2022/06/07 03:21:33;;;;;;;7.15;4.47;;;;;;;16.06;91.20;94663.13;5050383;28;20204;-79
2022/06/07 03:23:59;;;;;;;5.78;4.20;;;;;;;16.14;91.50;94664.84;5050233;28;20223;-78
2022/06/07 03:26:26;;;;;;;8.73;5.18;;;;;;;16.23;90.86;94662.69;5052461;28;20228;-78
2022/06/07 03:28:53;;;;;;;9.25;4.82;;;;;;;16.08;91.50;94665.50;5050979;28;20682;-78
2022/06/07 03:31:20;;;;;;;9.55;4.60;;;;;;;16.09;91.27;94670.59;5051233;28;20219;-79
2022/06/07 03:33:48;;;;;;;8.27;5.15;;;;;;;16.38;91.01;94668.41;5050928;28;21521;-79
2022/06/07 03:36:18;;;;;;;6.00;4.13;;;;;;;16.65;90.22;94661.88;5050811;28;20231;-80
2022/06/07 03:38:47;;;;;;;6.47;4.50;;;;;;;16.81;89.26;94665.25;5050994;28;20253;-78
2022/06/07 03:41:17;;;;;;;7.72;3.80;;;;;;;16.99;88.34;94660.88;5051008;28;20227;-78
2022/06/07 03:43:44;;;;;;;5.93;4.18;;;;;;;16.99;88.30;94660.88;5050856;28;20652;-78
2022/06/07 03:46:13;;;;;;;6.18;4.07;;;;;;;16.97;88.13;94667.88;5050849;28;20768;-79
2022/06/07 03:48:41;;;;;;;6.72;4.03;;;;;;;17.12;87.34;94663.41;5050397;28;20237;-78
2022/06/07 03:51:08;;;;;;;7.82;6.10;;;;;;;17.12;87.08;94664.19;5050903;28;20207;-79
2022/06/07 03:53:35;;;;;;;6.25;4.28;;;;;;;17.12;86.60;94663.41;5050440;28;20701;-79
2022/06/07 03:56:03;;;;;;;6.18;3.83;;;;;;;17.19;86.73;94660.78;5050857;28;20235;-82
2022/06/07 03:58:30;;;;;;;5.53;4.13;;;;;;;17.13;86.71;94660.31;5050094;28;20604;-78
2022/06/07 04:00:58;;;;;;;7.88;4.20;;;;;;;17.24;86.82;94665.94;5050880;28;20612;-82
2022/06/07 04:03:25;;;;;;;14.77;9.75;;;;;;;17.40;85.51;94658.34;5049996;28;20501;-79
2022/06/07 04:05:53;;;;;;;12.38;6.47;;;;;;;17.73;83.54;94650.22;5050837;28;20200;-78
2022/06/07 04:08:20;;;;;;;7.07;5.20;;;;;;;17.74;83.44;94651.81;5050271;28;20515;-80
2022/06/07 04:10:49;;;;;;;13.82;4.85;;;;;;;17.64;83.69;94652.44;5050860;28;20207;-77
2022/06/07 04:13:19;;;;;;;13.95;8.50;;;;;;;17.24;85.58;94665.94;5041424;28;20247;-77
2022/06/07 04:15:46;;;;;;;8.60;6.32;;;;;;;16.90;87.26;94670.50;5054362;28;20219;-77
2022/06/07 04:18:13;;;;;;;12.30;5.57;;;;;;;16.77;88.56;94675.38;5054850;28;20207;-79
2022/06/07 04:20:41;;;;;;;11.27;6.40;;;;;;;16.81;88.36;94672.72;5054590;28;20246;-80
2022/06/07 04:23:09;;;;;;;14.40;6.22;;;;;;;16.81;89.46;94675.44;5054918;28;20269;-76
2022/06/07 04:25:39;;;;;;;15.93;7.30;;;;;;;16.74;90.05;94680.78;5054422;28;20310;-77
2022/06/07 04:28:06;;;;;;;16.92;6.75;;;;;;;16.70;90.52;94680.72;5055283;28;20205;-78
2022/06/07 04:30:34;;;;;;;14.52;6.88;;;;;;;16.54;89.88;94682.75;5054395;28;20224;-77
2022/06/07 04:33:01;;;;;;;12.38;7.15;;;;;;;16.51;89.86;94678.03;5054629;28;20273;-78
2022/06/07 04:35:28;;;;;;;14.23;7.28;;;;;;;16.60;89.57;94675.81;5054336;28;20227;-77
2022/06/07 04:37:56;;;;;;;12.07;7.72;;;;;;;16.96;88.41;94672.53;5054138;28;20265;-77
2022/06/07 04:40:23;;;;;;;13.98;7.25;;;;;;;17.39;86.63;94667.72;5054367;28;20554;-77
2022/06/07 04:42:50;;;;;;;13.55;6.60;;;;;;;17.56;85.50;94667.19;5054278;28;20203;-73
2022/06/07 04:45:17;;;;;;;9.27;6.45;;;;;;;17.26;85.91;94669.88;5067344;28;20228;-76
2022/06/07 04:47:47;;;;;;;13.32;7.88;;;;;;;17.21;86.64;94672.16;5054058;28;20285;-75
2022/06/07 04:50:16;;;;;;;12.15;6.90;;;;;;;17.05;87.19;94681.31;5054080;28;20245;-75
2022/06/07 04:52:44;;;;;;;13.65;9.00;;;;;;;16.90;87.32;94687.72;5053454;28;20752;-76
2022/06/07 04:55:11;;;;;;;12.02;7.03;;;;;;;16.92;87.77;94685.41;5053515;28;20203;-76
2022/06/07 04:57:38;;;;;;;13.15;7.50;;;;;;;16.96;87.24;94678.03;5053960;28;20227;-76
2022/06/07 05:00:08;;;;;;;12.25;7.65;;;;;;;17.07;87.19;94675.47;5053330;28;20776;-76
2022/06/07 05:02:36;;;;;;;14.60;7.07;;;;;;;17.13;86.52;94686.88;5053246;28;20204;-77
2022/06/07 05:05:05;;;;;;;16.33;7.32;;;;;;;17.27;86.42;94690.63;5052855;28;20295;-77
2022/06/07 05:07:32;;;;;;;17.73;8.82;;;;;;;17.35;85.57;94695.06;5052994;28;20223;-77
2022/06/07 05:09:59;;;;;;;17.48;8.77;;;;;;;17.51;85.50;94697.63;5053608;28;20762;-77
2022/06/07 05:12:27;;;;;;;18.20;8.52;;;;;;;17.48;85.58;94692.91;5053798;28;20223;-77
2022/06/07 05:14:54;;;;;;;20.75;8.50;;;;;;;17.56;85.33;94683.63;5052460;28;20723;-77
2022/06/07 05:17:21;;;;;;;14.98;8.35;;;;;;;17.52;85.11;94682.78;5052745;28;20645;-76
2022/06/07 05:19:48;;;;;;;16.17;9.05;;;;;;;17.83;85.08;94697.31;5052917;28;20208;-77
2022/06/07 05:22:17;;;;;;;16.52;9.52;;;;;;;18.21;83.71;94702.47;5052516;28;20286;-78
2022/06/07 05:24:44;;;;;;;18.00;10.38;;;;;;;18.22;82.18;94698.59;5052412;28;20223;-77
2022/06/07 05:27:17;;;;;;;15.50;8.73;;;;;;;17.93;83.50;94697.44;5053567;28;20246;-77
2022/06/07 05:29:47;;;;;;;18.95;9.05;;;;;;;18.61;81.57;94704.53;5052996;28;20727;-77
2022/06/07 05:32:14;;;;;;;25.13;10.43;;;;;;;18.59;80.64;94695.06;5052717;28;20199;-77
2022/06/07 05:34:41;;;;;;;18.85;9.65;;;;;;;18.83;79.90;94689.06;5053446;28;20219;-76
2022/06/07 05:37:08;;;;;;;14.90;9.07;;;;;;;19.11;78.72;94694.81;5052385;28;20231;-77
2022/06/07 05:39:36;;;;;;;16.98;8.00;;;;;;;19.28;77.06;94698.03;5053179;28;20270;-77
2022/06/07 05:42:03;;;;;;;11.88;7.57;;;;;;;19.40;76.73;94697.75;5053266;28;20200;-77
2022/06/07 05:44:30;;;;;;;24.38;8.15;;;;;;;19.36;75.86;94694.19;5064075;28;20697;-77
2022/06/07 05:46:59;;;;;;;15.32;9.25;;;;;;;19.78;75.26;94682.72;5054728;28;20309;-74
2022/06/07 05:49:26;;;;;;;22.05;13.23;;;;;;;22.03;67.83;94670.78;5052980;28;20538;-77
2022/06/07 05:51:53;;;;;;;16.23;11.63;;;;;;;24.87;60.45;94665.56;5052754;28;20220;-77
2022/06/07 05:54:20;;;;;;;16.48;11.68;;;;;;;23.68;60.50;94675.66;5053029;28;20211;-76
2022/06/07 05:56:48;;;;;;;16.55;11.25;;;;;;;22.21;65.30;94685.31;5052638;28;20235;-77
2022/06/07 05:59:15;;;;;;;19.58;12.25;;;;;;;20.25;72.71;94684.47;5053095;28;20203;-75
2022/06/07 06:01:42;;;;;;;18.98;12.38;;;;;;;19.01;77.26;94700.97;5052588;28;20211;-76
2022/06/07 06:04:10;;;;;;;20.00;12.75;;;;;;;19.37;77.01;94687.53;5052671;28;20208;-76
2022/06/07 06:06:37;;;;;;;19.02;13.07;;;;;;;19.33;75.91;94690.25;5052463;28;20255;-77
2022/06/07 06:11:51;;;;;;;18.73;13.25;;;;;;;19.14;76.83;94698.72;5040959;28;20408;-77
2022/06/07 06:14:17;;;;;;;20.13;13.23;;;;;;;19.59;76.05;94694.75;5051778;28;20722;-78
2022/06/07 06:16:44;;;;;;;17.92;9.55;;;;;;;19.93;74.46;94689.84;5052341;28;20586;-77
2022/06/07 06:19:11;;;;;;;20.70;10.13;;;;;;;20.51;72.40;94681.44;5051827;28;20273;-77
2022/06/07 06:21:43;;;;;;;15.77;9.48;;;;;;;21.95;68.47;94667.25;5052141;28;20199;-77
2022/06/07 06:24:11;;;;;;;15.10;9.02;;;;;;;23.43;62.95;94672.31;5052034;28;20223;-77
2022/06/07 06:26:39;;;;;;;12.32;7.88;;;;;;;25.09;57.00;94655.72;5052216;28;20752;-76
2022/06/07 06:29:08;;;;;;;14.75;7.95;;;;;;;25.02;57.10;94655.81;5051982;28;20223;-77
2022/06/07 06:31:35;;;;;;;19.02;10.65;;;;;;;24.02;60.00;94662.66;5051954;28;20692;-77
2022/06/07 06:34:03;;;;;;;17.13;11.15;;;;;;;23.45;60.70;94667.16;5051248;28;20666;-77
2022/06/07 06:36:30;;;;;;;17.40;11.00;;;;;;;23.05;61.98;94663.94;5052041;28;20223;-76
2022/06/07 06:38:58;;;;;;;16.90;11.48;;;;;;;25.18;57.81;94647.66;5038012;28;20215;-75
2022/06/07 06:41:27;;;;;;;18.20;11.10;;;;;;;26.64;53.96;94644.94;5039949;28;20294;-76
2022/06/07 06:43:55;;;;;;;13.70;10.68;;;;;;;27.39;51.21;94650.34;5041309;28;20221;-77
2022/06/07 06:46:27;;;;;;;15.60;10.30;;;;;;;27.76;50.63;94645.44;5044917;28;20203;-78
2022/06/07 06:48:54;;;;;;;14.38;10.27;;;;;;;26.10;53.22;94640.44;5039159;28;20222;-77
2022/06/07 06:51:24;;;;;;;16.23;9.82;;;;;;;25.73;54.27;94654.66;5047077;28;20224;-78
2022/06/07 06:53:52;;;;;;;13.57;10.85;;;;;;;26.06;54.08;94650.88;5049208;28;20285;-77
2022/06/07 06:56:21;;;;;;;19.08;11.73;;;;;;;26.57;52.54;94645.88;5051062;28;20261;-78
2022/06/07 06:58:50;;;;;;;16.13;11.40;;;;;;;27.51;50.21;94640.50;5049281;28;20235;-78
2022/06/07 07:01:22;;;;;;;20.42;11.85;;;;;;;27.89;49.97;94646.28;5046426;28;20634;-78
2022/06/07 07:03:51;;;;;;;15.10;10.77;;;;;;;28.73;48.58;94639.53;5043969;28;20221;-77
2022/06/07 07:06:18;;;;;;;19.33;11.50;;;;;;;29.26;46.31;94629.53;5037375;28;20204;-76
2022/06/07 07:08:46;;;;;;;16.52;11.27;;;;;;;28.60;47.05;94630.38;5041267;28;20219;-76
2022/06/07 07:11:17;;;;;;;16.73;11.30;;;;;;;29.26;46.05;94639.91;5038561;28;20610;-76
2022/06/07 07:13:44;;;;;;;14.77;11.15;;;;;;;28.13;47.72;94630.94;5047251;28;20288;-75
2022/06/07 07:16:13;;;;;;;13.63;10.75;;;;;;;27.39;49.75;94642.00;5050183;28;20646;-76
2022/06/07 07:18:40;;;;;;;17.23;11.43;;;;;;;28.72;47.96;94624.03;5050066;28;20436;-76
2022/06/07 07:21:12;;;;;;;13.98;9.93;;;;;;;28.41;47.81;94628.56;5050322;28;20571;-76
2022/06/07 07:23:39;;;;;;;12.57;9.40;;;;;;;28.00;48.45;94637.66;5051125;28;20513;-76
2022/06/07 07:26:08;;;;;;;12.15;9.02;;;;;;;27.34;49.62;94641.72;5050625;28;20228;-76
2022/06/07 07:28:35;;;;;;;13.60;10.27;;;;;;;28.05;48.78;94635.13;5050755;28;20207;-77
2022/06/07 07:31:04;;;;;;;15.30;10.13;;;;;;;27.45;48.57;94631.91;5030821;28;20224;-77
2022/06/07 07:33:31;;;;;;;17.50;10.75;;;;;;;28.04;48.15;94627.97;5042088;28;20258;-76
2022/06/07 07:36:01;;;;;;;12.95;9.63;;;;;;;28.70;46.21;94620.91;5044591;28;20204;-78
2022/06/07 07:38:29;;;;;;;13.30;9.23;;;;;;;28.86;46.91;94620.06;5037288;28;20232;-78
2022/06/07 07:40:56;;;;;;;10.75;9.00;;;;;;;28.09;47.30;94619.09;5042035;28;20626;-79
2022/06/07 07:43:23;;;;;;;10.00;8.57;;;;;;;27.57;48.70;94622.09;5046309;28;20623;-79
2022/06/07 07:45:52;;;;;;;12.07;7.97;;;;;;;27.19;50.32;94624.63;5050160;28;20234;-76
2022/06/07 07:48:19;;;;;;;10.50;7.47;;;;;;;29.16;47.74;94605.53;5050044;28;20791;-80
2022/06/07 07:50:47;;;;;;;14.55;7.47;;;;;;;28.66;46.12;94606.31;5050819;28;20203;-80
2022/06/07 07:53:14;;;;;;;10.63;7.90;;;;;;;28.37;47.19;94594.44;5039252;28;20207;-78
2022/06/07 07:55:45;;;;;;;10.57;7.45;;;;;;;28.64;47.35;94603.97;5034519;28;20207;-77
2022/06/07 07:58:12;;;;;;;12.57;8.32;;;;;;;28.27;46.93;94597.13;5046636;28;20302;-77
2022/06/07 08:00:42;;;;;;;9.88;7.82;;;;;;;28.41;48.43;94589.56;5046938;28;20857;-78
2022/06/07 08:03:09;;;;;;;10.50;7.47;;;;;;;28.55;47.64;94589.13;5044513;28;20228;-78
2022/06/07 08:05:36;;;;;;;12.27;7.15;;;;;;;28.70;45.37;94576.28;5040931;28;20208;-77
2022/06/07 08:08:03;;;;;;;7.55;4.65;;;;;;;28.27;43.59;94590.75;5035947;28;20219;-78
2022/06/07 08:10:30;;;;;;;5.30;4.80;;;;;;;27.23;46.66;94586.34;5048777;28;20220;-78
2022/06/07 08:12:59;;;;;;;5.88;4.95;;;;;;;27.79;45.08;94580.53;5048861;28;20241;-79
2022/06/07 08:15:29;;;;;;;5.80;4.95;;;;;;;27.52;47.36;94584.41;5047054;28;20227;-78
2022/06/07 08:17:57;;;;;;;8.45;5.03;;;;;;;27.78;46.54;94581.75;5048770;28;20598;-78
2022/06/07 08:20:24;;;;;;;5.70;4.35;;;;;;;27.77;46.52;94569.06;5048561;28;20609;-80
2022/06/07 08:22:51;;;;;;;5.05;4.15;;;;;;;27.61;45.38;94571.91;5048637;28;20302;-78
2022/06/07 08:25:19;;;;;;;6.47;4.25;;;;;;;27.31;45.44;94575.84;5048887;28;20235;-79
2022/06/07 08:27:45;;;;;;;7.20;3.95;;;;;;;26.72;47.35;94574.84;5037203;28;20215;-80
2022/06/07 08:30:15;;;;;;;5.20;3.90;;;;;;;27.46;44.99;94572.25;5048629;28;20224;-80
2022/06/07 08:32:42;;;;;;;5.68;4.50;;;;;;;28.09;45.82;94563.38;5048335;28;20706;-79
2022/06/07 08:37:59;;;;;;;6.40;5.20;;;;;;;27.39;44.94;94555.72;5047443;28;20254;-80
2022/06/07 08:40:33;;;;;;;5.03;4.35;;;;;;;26.54;45.57;94560.59;5049035;28;20291;-81
2022/06/07 08:43:02;;;;;;;4.85;3.60;;;;;;;27.51;43.21;94557.00;5048389;28;20798;-80
2022/06/07 08:45:34;;;;;;;9.75;3.50;;;;;;;26.81;43.28;94552.78;5062097;28;20311;-80
2022/06/07 08:48:05;;;;;;;5.60;3.03;;;;;;;26.33;42.91;94559.06;5048903;28;20227;-78
2022/06/07 08:50:35;;;;;;;4.05;2.90;;;;;;;25.67;45.57;94562.03;5047672;28;20258;-78
2022/06/07 08:53:12;;;;;;;6.20;3.22;;;;;;;25.61;45.01;94558.13;5048936;28;20254;-80
2022/06/07 08:55:45;;;;;;;6.05;3.35;;;;;;;25.15;44.65;94554.22;5048916;28;20630;-79
2022/06/07 08:58:17;;;;;;;4.78;2.70;;;;;;;26.24;43.30;94542.16;5050352;28;20706;-80
2022/06/07 09:00:48;;;;;;;4.93;2.92;;;;;;;26.85;41.15;94539.59;5052427;28;20192;-82
2022/06/07 09:03:36;;;;;;;4.00;3.00;;;;;;;27.05;42.27;94535.97;5052359;28;20212;-81
2022/06/07 09:06:16;;;;;;;4.07;2.67;;;;;;;26.70;43.46;94538.38;5052561;28;20583;-79
2022/06/07 09:08:47;;;;;;;4.55;3.17;;;;;;;26.58;43.79;94527.94;5052683;28;20258;-80
2022/06/07 09:14:07;;;;;;;3.00;2.70;;;;;;;26.87;42.30;94528.03;5051508;28;20310;-80
2022/06/07 09:16:41;;;;;;;5.00;3.70;;;;;;;26.06;41.42;94537.03;5051246;28;20227;-79
2022/06/07 09:19:13;;;;;;;8.98;3.60;;;;;;;25.60;42.67;94528.81;5052518;28;20235;-79
2022/06/07 09:21:43;;;;;;;3.92;3.38;;;;;;;25.58;43.75;94528.47;5050809;28;20207;-80
2022/06/07 09:24:14;;;;;;;4.80;3.15;;;;;;;25.89;43.41;94531.84;5051958;28;20318;-76
2022/06/07 09:26:42;;;;;;;4.47;3.78;;;;;;;26.34;43.45;94532.09;5051815;28;20204;-80
2022/06/07 09:29:16;;;;;;;5.78;5.00;;;;;;;26.90;42.00;94519.63;5050562;28;20277;-81
2022/06/07 09:31:48;;;;;;;4.38;3.72;;;;;;;27.26;41.69;94524.28;5050682;28;20216;-77
2022/06/07 09:34:21;;;;;;;4.90;3.58;;;;;;;26.35;42.24;94512.22;5038264;28;20236;-79
2022/06/07 09:36:55;;;;;;;7.45;3.40;;;;;;;26.60;42.00;94508.06;5052647;28;20234;-78
2022/06/07 09:39:28;;;;;;;5.22;3.80;;;;;;;27.04;41.68;94506.59;5052140;28;20306;-81
2022/06/07 09:42:01;;;;;;;3.65;3.30;;;;;;;27.75;41.11;94499.09;5051637;28;20318;-81
2022/06/07 09:44:32;;;;;;;6.00;4.93;;;;;;;27.63;42.84;94497.06;5051541;28;20227;-81
2022/06/07 09:47:04;;;;;;;5.25;4.47;;;;;;;27.61;41.03;94505.09;5051017;28;20702;-79
2022/06/07 09:49:36;;;;;;;4.07;3.65;;;;;;;26.28;42.06;94500.44;5051652;28;20690;-79
2022/06/07 09:52:13;;;;;;;6.70;3.60;;;;;;;25.59;44.62;94493.97;5051512;28;20208;-78
2022/06/07 09:54:43;;;;;;;4.13;3.72;;;;;;;26.41;43.76;94481.91;5051285;28;20554;-75
2022/06/07 09:57:23;;;;;;;4.13;3.47;;;;;;;27.21;41.27;94494.22;5051473;28;20207;-81
2022/06/07 10:00:05;;;;;;;6.28;3.63;;;;;;;26.97;41.47;94490.09;5051190;28;20254;-80
2022/06/07 10:02:53;;;;;;;5.20;3.50;;;;;;;27.28;41.90;94482.91;5051158;28;20242;-80
2022/06/07 10:05:27;;;;;;;4.28;3.50;;;;;;;26.78;41.97;94488.97;5049111;28;20685;-79
2022/06/07 10:08:01;;;;;;;4.40;4.00;;;;;;;27.41;43.27;94480.94;5050500;28;20239;-78
2022/06/07 10:10:36;;;;;;;4.22;3.58;;;;;;;26.45;41.45;94477.06;5050743;28;20269;-78
2022/06/07 10:13:16;;;;;;;4.43;3.75;;;;;;;26.15;43.70;94487.22;5051055;28;20239;-79
2022/06/07 10:15:50;;;;;;;5.53;4.15;;;;;;;25.61;43.90;94477.66;5051137;28;20226;-78
2022/06/07 10:18:34;;;;;;;4.78;4.13;;;;;;;25.67;44.48;94476.78;5051408;28;20310;-80
2022/06/07 10:21:16;;;;;;;4.72;3.60;;;;;;;26.21;43.05;94476.41;5051125;28;20203;-80
2022/06/07 10:24:12;;;;;;;4.68;4.18;;;;;;;26.09;42.61;94471.53;5050951;28;20274;-81
2022/06/07 10:26:50;;;;;;;4.90;4.07;;;;;;;26.58;43.02;94471.59;5041110;28;20247;-79
2022/06/07 10:29:26;;;;;;;4.80;3.53;;;;;;;26.77;43.66;94468.72;5051328;28;20192;-80
2022/06/07 10:31:59;;;;;;;5.35;3.78;;;;;;;26.94;42.65;94465.94;5050689;28;20704;-79
2022/06/07 10:34:37;;;;;;;4.22;3.83;;;;;;;26.47;42.95;94457.97;5050412;28;20717;-80
2022/06/07 10:37:18;;;;;;;4.35;3.95;;;;;;;26.44;41.60;94458.81;5050071;28;20215;-77
2022/06/07 10:39:57;;;;;;;4.85;3.88;;;;;;;26.50;41.70;94457.09;5050467;28;20227;-77
2022/06/07 10:42:43;;;;;;;6.32;4.38;;;;;;;27.07;40.47;94450.09;5037716;28;20191;-77
2022/06/07 10:45:19;;;;;;;5.15;4.30;;;;;;;28.35;40.67;94443.63;5050077;28;20750;-79
2022/06/07 10:47:54;;;;;;;4.55;3.70;;;;;;;27.71;38.66;94434.41;5048426;28;20199;-80
2022/06/07 10:50:28;;;;;;;3.85;3.45;;;;;;;28.08;42.10;94430.09;5050300;28;20203;-79
2022/06/07 10:53:02;;;;;;;7.05;3.40;;;;;;;28.46;38.54;94430.13;5049846;28;20873;-81
2022/06/07 10:55:37;;;;;;;5.63;3.75;;;;;;;29.56;37.19;94415.19;5050581;28;20203;-81
2022/06/07 10:58:20;;;;;;;4.57;3.58;;;;;;;28.68;38.67;94417.06;5050627;28;20278;-79
2022/06/07 11:00:52;;;;;;;3.78;3.47;;;;;;;27.68;41.12;94421.38;5050542;28;20601;-80
2022/06/07 11:03:27;;;;;;;5.03;3.38;;;;;;;27.01;40.73;94424.03;5039112;28;20758;-76
2022/06/07 11:11:40;;;;;;;6.00;4.15;;;;;;;27.19;41.62;94424.34;5038672;28;20187;-81
2022/06/07 11:14:19;;;;;;;6.60;4.10;;;;;;;26.92;41.15;94416.31;5049809;28;20231;-78
2022/06/07 11:17:01;;;;;;;5.43;3.78;;;;;;;26.70;41.24;94416.06;5050384;28;20220;-82
2022/06/07 11:19:29;;;;;;;4.75;3.70;;;;;;;26.99;41.44;94418.13;5051251;28;20223;-79
2022/06/07 11:21:59;;;;;;;5.22;3.22;;;;;;;27.25;39.77;94411.44;5050171;28;20297;-80
2022/06/07 11:24:33;;;;;;;3.40;3.10;;;;;;;27.70;39.17;94413.38;5051158;28;20607;-79
2022/06/07 11:27:18;;;;;;;4.68;3.40;;;;;;;27.29;39.33;94412.13;5050421;28;20290;-80
2022/06/07 11:29:46;;;;;;;4.00;3.58;;;;;;;26.27;41.33;94415.53;5050579;28;20234;-80
2022/06/07 11:32:40;;;;;;;3.63;3.33;;;;;;;26.01;41.39;94414.56;5049954;28;20637;-79
2022/06/07 11:35:47;;;;;;;5.75;3.88;;;;;;;26.62;42.22;94414.72;5051072;28;20219;-81
2022/06/07 11:38:22;;;;;;;4.50;3.40;;;;;;;26.88;40.73;94410.06;5038013;28;20250;-81
2022/06/07 11:40:51;;;;;;;5.13;3.42;;;;;;;26.81;40.30;94416.56;5038205;28;20199;-80
2022/06/07 11:43:54;;;;;;;3.42;3.13;;;;;;;27.08;40.32;94391.25;5050425;28;20235;-81
2022/06/07 11:46:28;;;;;;;4.20;3.75;;;;;;;27.80;39.97;94392.78;5050957;28;20282;-82
2022/06/07 11:48:55;;;;;;;3.47;2.95;;;;;;;26.69;41.40;94395.06;5038105;28;20200;-80
2022/06/07 11:51:24;;;;;;;3.65;3.25;;;;;;;26.09;42.61;94394.56;5051047;28;20316;-78
2022/06/07 11:54:01;;;;;;;4.03;3.53;;;;;;;25.86;42.89;94391.91;5050838;28;20215;-80
2022/06/07 11:56:35;;;;;;;4.68;2.90;;;;;;;26.28;43.47;94383.78;5050664;28;20233;-79
2022/06/07 11:59:24;;;;;;;5.28;3.53;;;;;;;26.22;41.23;94379.97;5050682;28;20710;-79
2022/06/07 12:02:22;;;;;;;4.28;3.22;;;;;;;25.49;42.87;94385.56;5038004;28;20230;-79